Time,TemperatureF,DewpointF,PressureIn,WindDirection,WindDirectionDegrees,WindSpeedMPH,WindSpeedGustMPH,Humidity,HourlyPrecipIn,Conditions,Clouds,dailyrainin,SoftwareType,DateUTC
2013-02-20 00:00:00,12.6,9.2,29.91,SE,133,4.0,5.0,86,0.00,,---,0.00,VWS V13.00,2013-02-20 07:00:00,
2013-02-20 00:05:00,12.5,9.1,29.91,SE,133,2.0,5.0,86,0.00,,---,0.00,VWS V13.00,2013-02-20 07:05:00,
2013-02-20 00:10:00,12.3,9.2,29.93,SE,133,3.0,3.0,87,0.00,,---,0.00,VWS V13.00,2013-02-20 07:10:00,
2013-02-20 00:15:00,12.2,9.1,29.93,SE,133,1.0,4.0,87,0.00,,---,0.00,VWS V13.00,2013-02-20 07:15:00,
2013-02-20 00:20:00,12.1,9.0,29.93,SE,133,2.0,4.0,87,0.00,,---,0.00,VWS V13.00,2013-02-20 07:20:00,
2013-02-20 00:25:00,12.0,8.9,29.93,SE,133,4.0,4.0,87,0.00,,---,0.00,VWS V13.00,2013-02-20 07:25:00,
2013-02-20 00:30:00,11.8,8.7,29.93,SE,133,5.0,6.0,87,0.00,,---,0.00,VWS V13.00,2013-02-20 07:30:00,
2013-02-20 00:35:00,11.6,8.5,29.93,SE,133,6.0,7.0,87,0.00,,---,0.00,VWS V13.00,2013-02-20 07:35:00,
2013-02-20 00:40:00,11.4,8.3,29.93,SE,133,6.0,7.0,87,0.00,,---,0.00,VWS V13.00,2013-02-20 07:40:00,
2013-02-20 00:45:00,11.4,8.3,29.93,SE,134,7.0,7.0,87,0.00,,---,0.00,VWS V13.00,2013-02-20 07:45:00,
2013-02-20 00:50:00,11.6,8.7,29.93,SE,134,5.0,7.0,88,0.00,,---,0.00,VWS V13.00,2013-02-20 07:50:00,
2013-02-20 00:55:00,11.7,8.8,29.92,SE,134,5.0,7.0,88,0.00,,---,0.00,VWS V13.00,2013-02-20 07:55:00,
2013-02-20 01:00:00,11.7,8.6,29.92,SE,134,5.0,7.0,87,0.00,,---,0.00,VWS V13.00,2013-02-20 08:00:00,
2013-02-20 01:05:00,11.5,8.4,29.92,SE,134,5.0,7.0,87,0.00,,---,0.00,VWS V13.00,2013-02-20 08:05:00,
2013-02-20 01:10:00,11.1,7.7,29.93,SE,134,5.0,6.0,86,0.00,,---,0.00,VWS V13.00,2013-02-20 08:10:00,
2013-02-20 01:15:00,10.7,7.6,29.93,SE,134,6.0,7.0,87,0.00,,---,0.00,VWS V13.00,2013-02-20 08:15:00,
2013-02-20 01:20:00,10.4,7.3,29.93,SE,134,5.0,7.0,87,0.00,,---,0.00,VWS V13.00,2013-02-20 08:20:00,
2013-02-20 01:25:00,10.3,7.2,29.94,SE,134,5.0,7.0,87,0.00,,---,0.00,VWS V13.00,2013-02-20 08:25:00,
2013-02-20 01:30:00,10.3,7.5,29.94,SE,134,6.0,10.0,88,0.00,,---,0.00,VWS V13.00,2013-02-20 08:30:00,
2013-02-20 01:35:00,10.3,7.2,29.94,SE,134,4.0,10.0,87,0.00,,---,0.00,VWS V13.00,2013-02-20 08:35:00,
2013-02-20 01:40:00,10.1,7.0,29.94,SE,134,4.0,6.0,87,0.00,,---,0.00,VWS V13.00,2013-02-20 08:40:00,
2013-02-20 01:45:00,10.1,7.0,29.94,SE,134,4.0,6.0,87,0.00,,---,0.00,VWS V13.00,2013-02-20 08:45:00,
2013-02-20 01:50:00,10.2,7.4,29.94,SE,134,4.0,7.0,88,0.00,,---,0.00,VWS V13.00,2013-02-20 08:50:00,
2013-02-20 01:55:00,10.2,7.1,29.96,SE,134,5.0,7.0,87,0.00,,---,0.00,VWS V13.00,2013-02-20 08:55:00,
2013-02-20 02:00:00,10.1,7.0,29.96,SE,134,5.0,7.0,87,0.00,,---,0.00,VWS V13.00,2013-02-20 09:00:00,
2013-02-20 02:05:00,10.2,7.1,29.96,SE,134,5.0,7.0,87,0.00,,---,0.00,VWS V13.00,2013-02-20 09:05:00,
2013-02-20 02:10:00,10.3,7.2,29.96,SE,134,4.0,5.0,87,0.00,,---,0.00,VWS V13.00,2013-02-20 09:10:00,
2013-02-20 02:15:00,10.4,7.3,29.96,SE,134,5.0,7.0,87,0.00,,---,0.00,VWS V13.00,2013-02-20 09:15:00,
2013-02-20 02:20:00,10.2,7.1,29.96,SE,134,4.0,7.0,87,0.00,,---,0.00,VWS V13.00,2013-02-20 09:20:00,
2013-02-20 02:25:00,10.2,7.1,29.96,SE,134,5.0,7.0,87,0.00,,---,0.00,VWS V13.00,2013-02-20 09:25:00,
2013-02-20 02:30:00,10.2,7.1,29.96,SE,134,5.0,7.0,87,0.00,,---,0.00,VWS V13.00,2013-02-20 09:30:00,
2013-02-20 02:35:00,10.1,7.0,29.96,SE,134,6.0,7.0,87,0.00,,---,0.00,VWS V13.00,2013-02-20 09:35:00,
2013-02-20 02:40:00,9.9,6.8,29.97,SE,134,5.0,6.0,87,0.00,,---,0.00,VWS V13.00,2013-02-20 09:40:00,
2013-02-20 02:45:00,9.9,6.8,29.97,SE,134,5.0,6.0,87,0.00,,---,0.00,VWS V13.00,2013-02-20 09:45:00,
2013-02-20 02:50:00,9.9,7.1,29.97,SE,134,6.0,7.0,88,0.00,,---,0.00,VWS V13.00,2013-02-20 09:50:00,
2013-02-20 02:55:00,9.8,6.7,29.97,SE,134,6.0,7.0,87,0.00,,---,0.00,VWS V13.00,2013-02-20 09:55:00,
2013-02-20 03:00:00,9.7,6.6,29.97,SE,134,6.0,7.0,87,0.00,,---,0.00,VWS V13.00,2013-02-20 10:00:00,
2013-02-20 03:05:00,9.9,7.1,29.97,SE,134,5.0,7.0,88,0.00,,---,0.00,VWS V13.00,2013-02-20 10:05:00,
2013-02-20 03:10:00,9.9,6.8,29.97,SE,134,4.0,5.0,87,0.00,,---,0.00,VWS V13.00,2013-02-20 10:10:00,
2013-02-20 03:15:00,9.6,6.5,29.97,SE,134,6.0,6.0,87,0.00,,---,0.00,VWS V13.00,2013-02-20 10:15:00,
2013-02-20 03:20:00,9.2,6.1,29.97,SE,134,6.0,7.0,87,0.00,,---,0.00,VWS V13.00,2013-02-20 10:20:00,
2013-02-20 03:25:00,9.1,6.0,29.97,SE,134,6.0,7.0,87,0.00,,---,0.00,VWS V13.00,2013-02-20 10:25:00,
2013-02-20 03:30:00,9.3,6.5,29.97,SE,134,7.0,7.0,88,0.00,,---,0.00,VWS V13.00,2013-02-20 10:30:00,
2013-02-20 03:35:00,9.5,6.7,29.97,SE,134,6.0,7.0,88,0.00,,---,0.00,VWS V13.00,2013-02-20 10:35:00,
2013-02-20 03:40:00,9.8,7.0,29.97,SE,134,6.0,7.0,88,0.00,,---,0.00,VWS V13.00,2013-02-20 10:40:00,
2013-02-20 03:45:00,9.9,7.1,29.97,SE,134,6.0,7.0,88,0.00,,---,0.00,VWS V13.00,2013-02-20 10:45:00,
2013-02-20 03:50:00,9.9,7.1,29.97,SE,134,7.0,9.0,88,0.00,,---,0.00,VWS V13.00,2013-02-20 10:50:00,
2013-02-20 03:55:00,9.3,6.2,29.97,SE,134,7.0,9.0,87,0.00,,---,0.00,VWS V13.00,2013-02-20 10:55:00,
2013-02-20 04:00:00,8.9,5.8,29.97,SE,134,4.0,9.0,87,0.00,,---,0.00,VWS V13.00,2013-02-20 11:00:00,
2013-02-20 04:05:00,8.9,6.1,29.97,SE,134,4.0,9.0,88,0.00,,---,0.00,VWS V13.00,2013-02-20 11:05:00,
2013-02-20 04:10:00,9.2,6.4,29.98,SE,134,6.0,7.0,88,0.00,,---,0.00,VWS V13.00,2013-02-20 11:10:00,
2013-02-20 04:15:00,9.6,6.8,29.98,SE,134,4.0,7.0,88,0.00,,---,0.00,VWS V13.00,2013-02-20 11:15:00,
2013-02-20 04:20:00,9.9,7.1,29.98,SE,134,4.0,7.0,88,0.00,,---,0.00,VWS V13.00,2013-02-20 11:20:00,
2013-02-20 04:25:00,9.9,7.1,29.98,SE,134,2.0,7.0,88,0.00,,---,0.00,VWS V13.00,2013-02-20 11:25:00,
2013-02-20 04:30:00,9.9,6.8,29.98,SE,134,3.0,7.0,87,0.00,,---,0.00,VWS V13.00,2013-02-20 11:30:00,
2013-02-20 04:35:00,9.9,7.1,29.98,SE,134,3.0,7.0,88,0.00,,---,0.00,VWS V13.00,2013-02-20 11:35:00,
2013-02-20 04:40:00,9.9,6.8,29.99,SE,134,3.0,4.0,87,0.00,,---,0.00,VWS V13.00,2013-02-20 11:40:00,
2013-02-20 04:45:00,10.0,6.9,29.99,SE,134,4.0,5.0,87,0.00,,---,0.00,VWS V13.00,2013-02-20 11:45:00,
2013-02-20 04:50:00,10.0,6.9,29.99,SE,134,4.0,5.0,87,0.00,,---,0.00,VWS V13.00,2013-02-20 11:50:00,
2013-02-20 04:55:00,10.2,7.4,30.00,SE,134,2.0,5.0,88,0.00,,---,0.00,VWS V13.00,2013-02-20 11:55:00,
2013-02-20 04:59:00,10.5,7.7,30.00,SE,134,3.0,5.0,88,0.00,,---,0.00,VWS V13.00,2013-02-20 11:59:00,
2013-02-20 05:04:00,10.6,7.8,30.00,SE,134,4.0,5.0,88,0.00,,---,0.00,VWS V13.00,2013-02-20 12:04:00,
2013-02-20 05:09:00,10.7,7.6,30.00,SE,134,4.0,4.0,87,0.00,,---,0.00,VWS V13.00,2013-02-20 12:09:00,
2013-02-20 05:14:00,10.6,7.5,30.00,SE,134,5.0,5.0,87,0.00,,---,0.00,VWS V13.00,2013-02-20 12:14:00,
2013-02-20 05:19:00,10.5,7.4,30.00,SE,134,1.0,5.0,87,0.00,,---,0.00,VWS V13.00,2013-02-20 12:19:00,
2013-02-20 05:24:00,10.6,7.8,30.00,SE,134,0.0,5.0,88,0.00,,---,0.00,VWS V13.00,2013-02-20 12:24:00,
2013-02-20 05:29:00,10.8,7.9,30.00,SE,134,1.0,5.0,88,0.00,,---,0.00,VWS V13.00,2013-02-20 12:29:00,
2013-02-20 05:34:00,10.7,7.6,30.00,SE,134,3.0,5.0,87,0.00,,---,0.00,VWS V13.00,2013-02-20 12:34:00,
2013-02-20 05:39:00,9.9,6.6,30.00,SE,134,4.0,4.0,86,0.00,,---,0.00,VWS V13.00,2013-02-20 12:39:00,
2013-02-20 05:44:00,9.2,5.6,30.00,SE,134,5.0,6.0,85,0.00,,---,0.00,VWS V13.00,2013-02-20 12:44:00,
2013-02-20 05:49:00,8.7,5.4,30.00,SE,134,3.0,6.0,86,0.00,,---,0.00,VWS V13.00,2013-02-20 12:49:00,
2013-02-20 05:54:00,8.5,5.2,30.02,SE,134,3.0,6.0,86,0.00,,---,0.00,VWS V13.00,2013-02-20 12:54:00,
2013-02-20 05:59:00,8.5,5.4,30.02,SE,134,5.0,6.0,87,0.00,,---,0.00,VWS V13.00,2013-02-20 12:59:00,
2013-02-20 06:04:00,8.4,5.3,30.02,SE,134,4.0,6.0,87,0.00,,---,0.00,VWS V13.00,2013-02-20 13:04:00,
2013-02-20 06:09:00,8.1,5.0,30.02,SE,134,4.0,4.0,87,0.00,,---,0.00,VWS V13.00,2013-02-20 13:09:00,
2013-02-20 06:14:00,8.1,5.0,30.02,SE,134,3.0,4.0,87,0.00,,---,0.00,VWS V13.00,2013-02-20 13:14:00,
2013-02-20 06:19:00,8.1,5.3,30.02,SE,134,3.0,4.0,88,0.00,,---,0.00,VWS V13.00,2013-02-20 13:19:00,
2013-02-20 06:24:00,8.3,5.5,30.03,SE,134,2.0,4.0,88,0.00,,---,0.00,VWS V13.00,2013-02-20 13:24:00,
2013-02-20 06:29:00,8.5,5.9,30.03,SE,134,1.0,4.0,89,0.00,,---,0.00,VWS V13.00,2013-02-20 13:29:00,
2013-02-20 06:34:00,8.7,6.1,30.03,SE,134,1.0,4.0,89,0.00,,---,0.00,VWS V13.00,2013-02-20 13:34:00,
2013-02-20 06:39:00,8.3,5.5,30.03,SE,134,2.0,3.0,88,0.00,,---,0.00,VWS V13.00,2013-02-20 13:39:00,
2013-02-20 06:44:00,8.0,5.2,30.03,SE,134,2.0,3.0,88,0.00,,---,0.00,VWS V13.00,2013-02-20 13:44:00,
2013-02-20 06:49:00,7.7,4.7,30.03,SE,134,2.0,3.0,87,0.00,,---,0.00,VWS V13.00,2013-02-20 13:49:00,
2013-02-20 06:54:00,7.6,4.8,30.04,SE,134,2.0,3.0,88,0.00,,---,0.00,VWS V13.00,2013-02-20 13:54:00,
2013-02-20 06:59:00,7.4,4.3,30.04,SE,134,2.0,3.0,87,0.00,,---,0.00,VWS V13.00,2013-02-20 13:59:00,
2013-02-20 07:04:00,7.3,4.5,30.04,SE,134,4.0,4.0,88,0.00,,---,0.00,VWS V13.00,2013-02-20 14:04:00,
2013-02-20 07:09:00,7.3,4.5,30.05,SE,134,3.0,3.0,88,0.00,,---,0.00,VWS V13.00,2013-02-20 14:09:00,
2013-02-20 07:14:00,7.5,4.9,30.05,SE,134,1.0,3.0,89,0.00,,---,0.00,VWS V13.00,2013-02-20 14:14:00,
2013-02-20 07:19:00,7.7,5.1,30.05,SE,134,3.0,4.0,89,0.00,,---,0.00,VWS V13.00,2013-02-20 14:19:00,
2013-02-20 07:24:00,7.9,5.3,30.05,SE,134,1.0,4.0,89,0.00,,---,0.00,VWS V13.00,2013-02-20 14:24:00,
2013-02-20 07:29:00,8.2,5.6,30.05,SE,134,1.0,4.0,89,0.00,,---,0.00,VWS V13.00,2013-02-20 14:29:00,
2013-02-20 07:34:00,8.4,6.1,30.05,SE,134,2.0,4.0,90,0.00,,---,0.00,VWS V13.00,2013-02-20 14:34:00,
2013-02-20 07:39:00,8.7,6.4,30.04,SE,134,0.0,0.0,90,0.00,,---,0.00,VWS V13.00,2013-02-20 14:39:00,
2013-02-20 07:44:00,9.1,6.8,30.04,SE,134,3.0,3.0,90,0.00,,---,0.00,VWS V13.00,2013-02-20 14:44:00,
2013-02-20 07:49:00,9.1,6.5,30.04,SE,134,1.0,4.0,89,0.00,,---,0.00,VWS V13.00,2013-02-20 14:49:00,
2013-02-20 07:54:00,9.1,6.5,30.05,SE,134,3.0,4.0,89,0.00,,---,0.00,VWS V13.00,2013-02-20 14:54:00,
2013-02-20 07:59:00,9.2,6.4,30.05,SE,134,3.0,4.0,88,0.00,,---,0.00,VWS V13.00,2013-02-20 14:59:00,
2013-02-20 08:04:00,9.3,6.7,30.05,SE,134,3.0,4.0,89,0.00,,---,0.00,VWS V13.00,2013-02-20 15:04:00,
2013-02-20 08:09:00,9.6,6.8,30.06,SE,134,1.0,1.0,88,0.00,,---,0.00,VWS V13.00,2013-02-20 15:09:00,
2013-02-20 08:14:00,9.8,7.2,30.06,SE,134,0.0,1.0,89,0.00,,---,0.00,VWS V13.00,2013-02-20 15:14:00,
2013-02-20 08:19:00,9.9,7.3,30.06,SE,134,0.0,1.0,89,0.00,,---,0.00,VWS V13.00,2013-02-20 15:19:00,
2013-02-20 08:24:00,10.3,7.7,30.06,SE,134,0.0,1.0,89,0.00,,---,0.00,VWS V13.00,2013-02-20 15:24:00,
2013-02-20 08:29:00,10.7,8.1,30.06,SE,134,0.0,1.0,89,0.00,,---,0.00,VWS V13.00,2013-02-20 15:29:00,
2013-02-20 08:34:00,11.1,8.5,30.06,SE,134,0.0,1.0,89,0.00,,---,0.00,VWS V13.00,2013-02-20 15:34:00,
2013-02-20 08:39:00,11.5,8.9,30.05,SE,134,0.0,0.0,89,0.00,,---,0.00,VWS V13.00,2013-02-20 15:39:00,
2013-02-20 08:44:00,11.9,9.5,30.05,SE,134,0.0,0.0,90,0.00,,---,0.00,VWS V13.00,2013-02-20 15:44:00,
2013-02-20 08:49:00,12.1,9.7,30.05,SE,134,0.0,0.0,90,0.00,,---,0.00,VWS V13.00,2013-02-20 15:49:00,
2013-02-20 08:54:00,12.5,10.1,30.04,SE,134,0.0,0.0,90,0.00,,---,0.00,VWS V13.00,2013-02-20 15:54:00,
2013-02-20 08:59:00,13.0,10.9,30.04,SE,134,0.0,0.0,91,0.00,,---,0.00,VWS V13.00,2013-02-20 15:59:00,
2013-02-20 09:04:00,13.5,11.4,30.04,SE,134,0.0,0.0,91,0.00,,---,0.00,VWS V13.00,2013-02-20 16:04:00,
2013-02-20 09:09:00,13.9,11.5,30.03,SE,134,0.0,0.0,90,0.00,,---,0.00,VWS V13.00,2013-02-20 16:09:00,
2013-02-20 09:14:00,14.2,12.1,30.03,SE,134,0.0,0.0,91,0.00,,---,0.00,VWS V13.00,2013-02-20 16:14:00,
2013-02-20 09:19:00,14.7,12.6,30.03,SE,134,0.0,0.0,91,0.00,,---,0.00,VWS V13.00,2013-02-20 16:19:00,
2013-02-20 09:24:00,15.2,13.1,30.03,SE,134,0.0,0.0,91,0.00,,---,0.00,VWS V13.00,2013-02-20 16:24:00,
2013-02-20 09:29:00,15.4,13.0,30.03,SE,134,0.0,0.0,90,0.00,,---,0.00,VWS V13.00,2013-02-20 16:29:00,
2013-02-20 09:34:00,15.7,13.3,30.03,SE,134,0.0,0.0,90,0.00,,---,0.00,VWS V13.00,2013-02-20 16:34:00,
2013-02-20 09:39:00,15.6,12.9,30.02,SE,134,0.0,0.0,89,0.00,,---,0.00,VWS V13.00,2013-02-20 16:39:00,
2013-02-20 09:44:00,15.4,12.7,30.02,SE,134,0.0,0.0,89,0.00,,---,0.00,VWS V13.00,2013-02-20 16:44:00,
2013-02-20 09:49:00,15.3,12.4,30.02,SE,134,0.0,0.0,88,0.00,,---,0.00,VWS V13.00,2013-02-20 16:49:00,
2013-02-20 09:54:00,15.4,12.7,30.03,SE,134,0.0,0.0,89,0.00,,---,0.00,VWS V13.00,2013-02-20 16:54:00,
2013-02-20 09:59:00,15.5,12.8,30.03,SE,134,0.0,0.0,89,0.00,,---,0.00,VWS V13.00,2013-02-20 16:59:00,
2013-02-20 10:04:00,15.5,12.8,30.03,SE,134,0.0,0.0,89,0.00,,---,0.00,VWS V13.00,2013-02-20 17:04:00,
2013-02-20 10:09:00,15.7,13.0,30.03,SE,134,3.0,3.0,89,0.00,,---,0.00,VWS V13.00,2013-02-20 17:09:00,
2013-02-20 10:14:00,16.1,13.4,30.03,SSE,153,0.0,4.0,89,0.00,,---,0.00,VWS V13.00,2013-02-20 17:14:00,
2013-02-20 10:19:00,16.5,13.6,30.03,SSE,147,2.0,4.0,88,0.00,,---,0.00,VWS V13.00,2013-02-20 17:19:00,
2013-02-20 10:24:00,16.8,13.9,30.03,SSE,148,0.0,4.0,88,0.00,,---,0.00,VWS V13.00,2013-02-20 17:24:00,
2013-02-20 10:29:00,17.1,14.2,30.03,SSE,148,0.0,4.0,88,0.00,,---,0.00,VWS V13.00,2013-02-20 17:29:00,
2013-02-20 10:34:00,17.3,14.4,30.03,SSE,148,0.0,4.0,88,0.00,,---,0.00,VWS V13.00,2013-02-20 17:34:00,
2013-02-20 10:39:00,17.5,14.3,30.03,SSE,148,0.0,0.0,87,0.00,,---,0.00,VWS V13.00,2013-02-20 17:39:00,
2013-02-20 10:44:00,17.6,14.4,30.03,SSE,148,0.0,0.0,87,0.00,,---,0.00,VWS V13.00,2013-02-20 17:44:00,
2013-02-20 10:49:00,17.6,14.4,30.03,SSE,148,0.0,0.0,87,0.00,,---,0.00,VWS V13.00,2013-02-20 17:49:00,
2013-02-20 10:54:00,17.8,14.6,30.03,SSE,148,0.0,0.0,87,0.00,,---,0.00,VWS V13.00,2013-02-20 17:54:00,
2013-02-20 10:59:00,18.0,14.5,30.03,SSE,148,0.0,0.0,86,0.00,,---,0.00,VWS V13.00,2013-02-20 17:59:00,
2013-02-20 11:04:00,18.2,14.7,30.03,SSE,148,0.0,0.0,86,0.00,,---,0.00,VWS V13.00,2013-02-20 18:04:00,
2013-02-20 11:09:00,18.3,14.8,30.04,SSE,148,0.0,0.0,86,0.00,,---,0.00,VWS V13.00,2013-02-20 18:09:00,
2013-02-20 11:14:00,18.4,14.6,30.04,SSE,148,0.0,0.0,85,0.00,,---,0.00,VWS V13.00,2013-02-20 18:14:00,
2013-02-20 11:19:00,18.6,14.9,30.04,SSE,148,0.0,0.0,85,0.00,,---,0.00,VWS V13.00,2013-02-20 18:19:00,
2013-02-20 11:24:00,18.6,14.9,30.03,SSE,148,0.0,0.0,85,0.00,,---,0.00,VWS V13.00,2013-02-20 18:24:00,
2013-02-20 11:29:00,18.5,14.8,30.03,SSE,148,3.0,4.0,85,0.00,,---,0.00,VWS V13.00,2013-02-20 18:29:00,
2013-02-20 11:34:00,18.5,14.8,30.03,SSW,200,3.0,4.0,85,0.00,,---,0.00,VWS V13.00,2013-02-20 18:34:00,
2013-02-20 11:39:00,18.8,14.8,30.03,SW,214,3.0,4.0,84,0.00,,---,0.00,VWS V13.00,2013-02-20 18:39:00,
2013-02-20 11:44:00,18.7,14.7,30.03,WNW,286,2.0,5.0,84,0.00,,---,0.00,VWS V13.00,2013-02-20 18:44:00,
2013-02-20 11:49:00,18.9,14.9,30.03,WNW,286,1.0,5.0,84,0.00,,---,0.00,VWS V13.00,2013-02-20 18:49:00,
2013-02-20 11:54:00,19.3,15.0,30.04,WNW,286,0.0,5.0,83,0.00,,---,0.00,VWS V13.00,2013-02-20 18:54:00,
2013-02-20 11:59:00,19.5,15.2,30.04,WNW,286,1.0,5.0,83,0.00,,---,0.00,VWS V13.00,2013-02-20 18:59:00,
2013-02-20 12:04:00,19.5,15.2,30.04,WNW,286,0.0,5.0,83,0.00,,---,0.00,VWS V13.00,2013-02-20 19:04:00,
2013-02-20 12:09:00,19.5,14.9,30.03,WNW,286,0.0,5.0,82,0.00,,---,0.00,VWS V13.00,2013-02-20 19:09:00,
2013-02-20 12:14:00,19.6,15.0,30.03,WNW,286,0.0,0.0,82,0.00,,---,0.00,VWS V13.00,2013-02-20 19:14:00,
2013-02-20 12:19:00,19.7,15.1,30.03,WNW,286,0.0,0.0,82,0.00,,---,0.00,VWS V13.00,2013-02-20 19:19:00,
2013-02-20 12:24:00,19.7,15.1,30.03,WNW,286,0.0,0.0,82,0.00,,---,0.00,VWS V13.00,2013-02-20 19:24:00,
2013-02-20 12:29:00,19.7,15.4,30.03,WNW,286,1.0,4.0,83,0.00,,---,0.00,VWS V13.00,2013-02-20 19:29:00,
2013-02-20 12:34:00,19.7,15.1,30.03,WNW,286,0.0,4.0,82,0.00,,---,0.00,VWS V13.00,2013-02-20 19:34:00,
2013-02-20 12:39:00,20.0,15.7,30.03,WNW,286,0.0,4.0,83,0.00,,---,0.00,VWS V13.00,2013-02-20 19:39:00,
2013-02-20 12:44:00,20.0,15.4,30.03,WNW,286,0.0,0.0,82,0.00,,---,0.00,VWS V13.00,2013-02-20 19:44:00,
2013-02-20 12:49:00,20.0,15.4,30.03,WNW,286,0.0,0.0,82,0.00,,---,0.00,VWS V13.00,2013-02-20 19:49:00,
2013-02-20 12:54:00,20.1,15.8,30.03,WNW,286,0.0,3.0,83,0.00,,---,0.00,VWS V13.00,2013-02-20 19:54:00,
2013-02-20 12:59:00,20.4,16.1,30.03,WNW,284,4.0,6.0,83,0.00,,---,0.00,VWS V13.00,2013-02-20 19:59:00,
2013-02-20 13:04:00,20.6,16.3,30.03,WNW,285,4.0,6.0,83,0.00,,---,0.00,VWS V13.00,2013-02-20 20:04:00,
2013-02-20 13:09:00,20.7,16.4,30.03,WNW,285,4.0,6.0,83,0.00,,---,0.00,VWS V13.00,2013-02-20 20:09:00,
2013-02-20 13:14:00,20.8,16.5,30.03,WNW,285,5.0,5.0,83,0.00,,---,0.00,VWS V13.00,2013-02-20 20:14:00,
2013-02-20 13:19:00,20.9,16.6,30.03,WNW,284,3.0,5.0,83,0.00,,---,0.00,VWS V13.00,2013-02-20 20:19:00,
2013-02-20 13:24:00,21.0,16.7,30.02,WNW,285,0.0,5.0,83,0.00,,---,0.00,VWS V13.00,2013-02-20 20:24:00,
2013-02-20 13:29:00,21.2,16.9,30.02,WNW,285,4.0,5.0,83,0.00,,---,0.00,VWS V13.00,2013-02-20 20:29:00,
2013-02-20 13:34:00,21.5,17.1,30.02,WNW,285,0.0,5.0,83,0.00,,---,0.00,VWS V13.00,2013-02-20 20:34:00,
2013-02-20 13:39:00,21.6,17.2,30.01,WNW,284,0.0,5.0,83,0.00,,---,0.00,VWS V13.00,2013-02-20 20:39:00,
2013-02-20 13:44:00,21.7,17.1,30.01,WNW,285,0.0,0.0,82,0.00,,---,0.00,VWS V13.00,2013-02-20 20:44:00,
2013-02-20 13:49:00,21.7,17.1,30.01,WNW,285,2.0,4.0,82,0.00,,---,0.00,VWS V13.00,2013-02-20 20:49:00,
2013-02-20 13:54:00,21.8,17.2,30.00,WNW,284,0.0,4.0,82,0.00,,---,0.00,VWS V13.00,2013-02-20 20:54:00,
2013-02-20 13:59:00,21.8,17.2,30.00,WNW,284,0.0,4.0,82,0.00,,---,0.00,VWS V13.00,2013-02-20 20:59:00,
2013-02-20 14:04:00,21.8,17.4,30.00,WNW,286,3.0,6.0,83,0.00,,---,0.00,VWS V13.00,2013-02-20 21:04:00,
2013-02-20 14:09:00,21.8,17.2,30.01,WNW,287,4.0,6.0,82,0.00,,---,0.00,VWS V13.00,2013-02-20 21:09:00,
2013-02-20 14:14:00,21.5,17.1,30.01,WNW,287,5.0,6.0,83,0.00,,---,0.00,VWS V13.00,2013-02-20 21:14:00,
2013-02-20 14:19:00,21.2,16.9,30.01,WNW,290,3.0,6.0,83,0.00,,---,0.00,VWS V13.00,2013-02-20 21:19:00,
2013-02-20 14:24:00,21.3,17.0,30.02,WNW,290,3.0,6.0,83,0.00,,---,0.00,VWS V13.00,2013-02-20 21:24:00,
2013-02-20 14:29:00,21.7,17.3,30.02,WNW,290,4.0,7.0,83,0.00,,---,0.00,VWS V13.00,2013-02-20 21:29:00,
2013-02-20 14:34:00,21.7,17.3,30.02,WNW,290,4.0,7.0,83,0.00,,---,0.00,VWS V13.00,2013-02-20 21:34:00,
2013-02-20 14:39:00,21.8,17.4,30.01,WNW,290,1.0,7.0,83,0.00,,---,0.00,VWS V13.00,2013-02-20 21:39:00,
2013-02-20 14:44:00,21.7,17.3,30.01,WNW,290,0.0,4.0,83,0.00,,---,0.00,VWS V13.00,2013-02-20 21:44:00,
2013-02-20 14:49:00,21.7,17.3,30.01,WNW,290,3.0,4.0,83,0.00,,---,0.00,VWS V13.00,2013-02-20 21:49:00,
2013-02-20 14:54:00,21.5,17.4,30.01,WNW,290,0.0,4.0,84,0.00,,---,0.00,VWS V13.00,2013-02-20 21:54:00,
2013-02-20 14:59:00,21.6,17.5,30.01,WNW,290,0.0,4.0,84,0.00,,---,0.00,VWS V13.00,2013-02-20 21:59:00,
2013-02-20 15:04:00,21.4,17.3,30.01,WNW,290,1.0,5.0,84,0.00,,---,0.00,VWS V13.00,2013-02-20 22:04:00,
2013-02-20 15:09:00,21.5,17.4,30.01,WNW,290,0.0,5.0,84,0.00,,---,0.00,VWS V13.00,2013-02-20 22:09:00,
2013-02-20 15:14:00,21.8,17.7,30.01,WNW,290,0.0,0.0,84,0.00,,---,0.00,VWS V13.00,2013-02-20 22:14:00,
2013-02-20 15:19:00,21.9,17.8,30.01,WNW,290,2.0,3.0,84,0.00,,---,0.00,VWS V13.00,2013-02-20 22:19:00,
2013-02-20 15:24:00,21.9,17.8,30.01,WNW,290,0.0,3.0,84,0.00,,---,0.00,VWS V13.00,2013-02-20 22:24:00,
2013-02-20 15:29:00,22.0,17.6,30.01,WNW,290,0.0,3.0,83,0.00,,---,0.00,VWS V13.00,2013-02-20 22:29:00,
2013-02-20 15:34:00,22.1,17.7,30.01,WNW,290,0.0,3.0,83,0.00,,---,0.00,VWS V13.00,2013-02-20 22:34:00,
2013-02-20 15:39:00,22.2,17.8,30.01,WNW,290,0.0,3.0,83,0.00,,---,0.00,VWS V13.00,2013-02-20 22:39:00,
2013-02-20 15:44:00,22.4,17.8,30.01,WNW,290,0.0,0.0,82,0.00,,---,0.00,VWS V13.00,2013-02-20 22:44:00,
2013-02-20 15:49:00,22.5,17.9,30.01,WNW,290,0.0,0.0,82,0.00,,---,0.00,VWS V13.00,2013-02-20 22:49:00,
2013-02-20 15:54:00,22.6,17.9,30.01,WNW,290,0.0,0.0,82,0.00,,---,0.00,VWS V13.00,2013-02-20 22:54:00,
2013-02-20 15:59:00,22.6,17.9,30.01,WNW,290,0.0,0.0,82,0.00,,---,0.00,VWS V13.00,2013-02-20 22:59:00,
2013-02-20 16:04:00,22.6,17.9,30.01,WNW,290,0.0,0.0,82,0.00,,---,0.00,VWS V13.00,2013-02-20 23:04:00,
2013-02-20 16:09:00,22.5,17.9,30.01,WNW,290,0.0,0.0,82,0.00,,---,0.00,VWS V13.00,2013-02-20 23:09:00,
2013-02-20 16:14:00,22.4,17.8,30.01,WNW,290,0.0,0.0,82,0.00,,---,0.00,VWS V13.00,2013-02-20 23:14:00,
2013-02-20 16:19:00,22.0,17.6,30.01,WNW,290,0.0,0.0,83,0.00,,---,0.00,VWS V13.00,2013-02-20 23:19:00,
2013-02-20 16:24:00,21.7,17.3,30.01,WNW,290,0.0,0.0,83,0.00,,---,0.00,VWS V13.00,2013-02-20 23:24:00,
2013-02-20 16:29:00,21.5,17.4,30.01,WNW,290,0.0,0.0,84,0.00,,---,0.00,VWS V13.00,2013-02-20 23:29:00,
2013-02-20 16:34:00,21.4,17.3,30.01,WNW,290,2.0,2.0,84,0.00,,---,0.00,VWS V13.00,2013-02-20 23:34:00,
2013-02-20 16:39:00,21.2,17.1,30.02,WNW,290,0.0,3.0,84,0.00,,---,0.00,VWS V13.00,2013-02-20 23:39:00,
2013-02-20 16:44:00,21.1,17.0,30.02,WNW,290,0.0,0.0,84,0.00,,---,0.00,VWS V13.00,2013-02-20 23:44:00,
2013-02-20 16:49:00,20.9,17.1,30.02,WNW,290,0.0,0.0,85,0.00,,---,0.00,VWS V13.00,2013-02-20 23:49:00,
2013-02-20 16:54:00,20.9,17.1,30.02,WNW,290,0.0,0.0,85,0.00,,---,0.00,VWS V13.00,2013-02-20 23:54:00,
2013-02-20 16:59:00,20.8,17.0,30.02,WNW,290,0.0,0.0,85,0.00,,---,0.00,VWS V13.00,2013-02-20 23:59:00,
2013-02-20 17:04:00,20.8,17.0,30.02,WNW,290,0.0,0.0,85,0.00,,---,0.00,VWS V13.00,2013-02-21 00:04:00,
2013-02-20 17:09:00,20.7,16.9,30.03,WNW,290,0.0,0.0,85,0.00,,---,0.00,VWS V13.00,2013-02-21 00:09:00,
2013-02-20 17:14:00,20.6,16.8,30.03,WNW,290,0.0,0.0,85,0.00,,---,0.00,VWS V13.00,2013-02-21 00:14:00,
2013-02-20 17:19:00,20.6,16.8,30.03,WNW,290,0.0,0.0,85,0.00,,---,0.00,VWS V13.00,2013-02-21 00:19:00,
2013-02-20 17:24:00,20.5,17.0,30.03,WNW,290,0.0,0.0,86,0.00,,---,0.00,VWS V13.00,2013-02-21 00:24:00,
2013-02-20 17:29:00,20.4,16.9,30.03,WNW,290,0.0,0.0,86,0.00,,---,0.00,VWS V13.00,2013-02-21 00:29:00,
2013-02-20 17:34:00,20.3,16.8,30.03,WNW,290,0.0,0.0,86,0.00,,---,0.00,VWS V13.00,2013-02-21 00:34:00,
2013-02-20 17:39:00,20.1,16.6,30.03,WNW,290,0.0,0.0,86,0.00,,---,0.00,VWS V13.00,2013-02-21 00:39:00,
2013-02-20 17:44:00,20.0,16.5,30.03,WNW,290,0.0,0.0,86,0.00,,---,0.00,VWS V13.00,2013-02-21 00:44:00,
2013-02-20 17:49:00,19.9,16.4,30.03,WNW,290,0.0,0.0,86,0.00,,---,0.00,VWS V13.00,2013-02-21 00:49:00,
2013-02-20 17:54:00,19.9,16.4,30.04,WNW,290,0.0,0.0,86,0.00,,---,0.00,VWS V13.00,2013-02-21 00:54:00,
2013-02-20 17:59:00,19.8,16.6,30.04,WNW,290,0.0,0.0,87,0.00,,---,0.00,VWS V13.00,2013-02-21 00:59:00,
2013-02-20 18:04:00,19.7,16.5,30.04,WNW,290,0.0,0.0,87,0.00,,---,0.00,VWS V13.00,2013-02-21 01:04:00,
2013-02-20 18:09:00,19.7,16.5,30.04,WNW,290,0.0,0.0,87,0.00,,---,0.00,VWS V13.00,2013-02-21 01:09:00,
2013-02-20 18:14:00,19.7,16.5,30.04,WNW,290,0.0,0.0,87,0.00,,---,0.00,VWS V13.00,2013-02-21 01:14:00,
2013-02-20 18:19:00,19.7,16.5,30.04,WNW,290,0.0,0.0,87,0.00,,---,0.00,VWS V13.00,2013-02-21 01:19:00,
2013-02-20 18:24:00,19.7,16.5,30.05,WNW,290,0.0,0.0,87,0.00,,---,0.00,VWS V13.00,2013-02-21 01:24:00,
2013-02-20 18:29:00,19.5,16.5,30.05,WNW,290,0.0,0.0,88,0.00,,---,0.00,VWS V13.00,2013-02-21 01:29:00,
2013-02-20 18:34:00,19.4,16.4,30.05,WNW,290,0.0,0.0,88,0.00,,---,0.00,VWS V13.00,2013-02-21 01:34:00,
2013-02-20 18:39:00,19.3,16.3,30.06,WNW,290,0.0,0.0,88,0.00,,---,0.00,VWS V13.00,2013-02-21 01:39:00,
2013-02-20 18:44:00,19.2,16.5,30.06,WNW,290,0.0,0.0,89,0.00,,---,0.00,VWS V13.00,2013-02-21 01:44:00,
2013-02-20 18:49:00,19.1,16.4,30.06,WNW,290,0.0,0.0,89,0.00,,---,0.00,VWS V13.00,2013-02-21 01:49:00,
2013-02-20 18:54:00,19.1,16.4,30.06,WNW,290,0.0,0.0,89,0.00,,---,0.00,VWS V13.00,2013-02-21 01:54:00,
2013-02-20 18:59:00,19.1,16.4,30.06,WNW,290,0.0,0.0,89,0.00,,---,0.00,VWS V13.00,2013-02-21 01:59:00,
2013-02-20 19:04:00,19.2,16.8,30.06,WNW,290,0.0,0.0,90,0.00,,---,0.00,VWS V13.00,2013-02-21 02:04:00,
2013-02-20 19:09:00,19.2,16.5,30.05,WNW,290,0.0,0.0,89,0.00,,---,0.00,VWS V13.00,2013-02-21 02:09:00,
2013-02-20 19:14:00,19.2,16.8,30.05,WNW,290,2.0,3.0,90,0.00,,---,0.00,VWS V13.00,2013-02-21 02:14:00,
2013-02-20 19:19:00,19.2,16.8,30.05,WNW,290,1.0,3.0,90,0.00,,---,0.00,VWS V13.00,2013-02-21 02:19:00,
2013-02-20 19:24:00,19.2,16.5,30.06,WNW,290,1.0,3.0,89,0.00,,---,0.00,VWS V13.00,2013-02-21 02:24:00,
2013-02-20 19:29:00,19.1,16.4,30.06,WNW,290,3.0,4.0,89,0.00,,---,0.00,VWS V13.00,2013-02-21 02:29:00,
2013-02-20 19:34:00,19.2,16.8,30.06,WNW,290,2.0,4.0,90,0.00,,---,0.00,VWS V13.00,2013-02-21 02:34:00,
2013-02-20 19:38:00,19.2,16.8,30.05,WNW,290,3.0,4.0,90,0.00,,---,0.00,VWS V13.00,2013-02-21 02:38:00,
2013-02-20 19:44:00,19.2,16.8,30.05,WNW,290,3.0,4.0,90,0.00,,---,0.00,VWS V13.00,2013-02-21 02:44:00,
2013-02-20 19:49:00,19.2,16.8,30.05,WNW,290,3.0,4.0,90,0.00,,---,0.00,VWS V13.00,2013-02-21 02:49:00,
2013-02-20 19:54:00,19.2,16.8,30.05,West,281,4.0,5.0,90,0.00,,---,0.00,VWS V13.00,2013-02-21 02:54:00,
2013-02-20 19:59:00,19.3,16.9,30.05,WSW,244,4.0,5.0,90,0.00,,---,0.00,VWS V13.00,2013-02-21 02:59:00,
2013-02-20 20:04:00,19.3,16.9,30.05,SW,236,5.0,5.0,90,0.00,,---,0.00,VWS V13.00,2013-02-21 03:04:00,
2013-02-20 20:09:00,19.3,16.9,30.05,SW,236,4.0,5.0,90,0.00,,---,0.00,VWS V13.00,2013-02-21 03:09:00,
2013-02-20 20:14:00,19.2,16.8,30.05,SW,236,4.0,5.0,90,0.00,,---,0.00,VWS V13.00,2013-02-21 03:14:00,
2013-02-20 20:18:00,19.1,16.7,30.05,SW,234,4.0,5.0,90,0.00,,---,0.00,VWS V13.00,2013-02-21 03:18:00,
2013-02-20 20:23:00,19.1,16.7,30.05,SW,234,4.0,5.0,90,0.00,,---,0.00,VWS V13.00,2013-02-21 03:23:00,
2013-02-20 20:28:00,19.1,16.7,30.05,SW,234,4.0,5.0,90,0.00,,---,0.00,VWS V13.00,2013-02-21 03:28:00,
2013-02-20 20:33:00,19.1,16.7,30.05,SW,234,4.0,5.0,90,0.00,,---,0.00,VWS V13.00,2013-02-21 03:33:00,
2013-02-20 20:38:00,19.0,16.6,30.05,SW,234,5.0,5.0,90,0.00,,---,0.00,VWS V13.00,2013-02-21 03:38:00,
2013-02-20 20:43:00,19.0,16.6,30.05,SW,234,4.0,5.0,90,0.00,,---,0.00,VWS V13.00,2013-02-21 03:43:00,
2013-02-20 20:48:00,19.0,16.6,30.05,SW,234,4.0,5.0,90,0.00,,---,0.00,VWS V13.00,2013-02-21 03:48:00,
2013-02-20 20:53:00,19.0,16.6,30.02,SW,234,4.0,5.0,90,0.00,,---,0.00,VWS V13.00,2013-02-21 03:53:00,
2013-02-20 20:58:00,19.0,16.8,30.02,SW,230,4.0,5.0,91,0.00,,---,0.00,VWS V13.00,2013-02-21 03:58:00,
2013-02-20 21:03:00,19.1,16.9,30.02,SW,217,3.0,5.0,91,0.00,,---,0.00,VWS V13.00,2013-02-21 04:03:00,
2013-02-20 21:08:00,19.1,16.7,30.03,SW,216,3.0,5.0,90,0.00,,---,0.00,VWS V13.00,2013-02-21 04:08:00,
2013-02-20 21:13:00,19.0,16.8,30.03,SW,216,4.0,4.0,91,0.00,,---,0.00,VWS V13.00,2013-02-21 04:13:00,
2013-02-20 21:18:00,19.0,16.8,30.03,SW,216,2.0,4.0,91,0.00,,---,0.00,VWS V13.00,2013-02-21 04:18:00,
2013-02-20 21:23:00,19.0,16.8,30.03,SW,216,3.0,4.0,91,0.00,,---,0.00,VWS V13.00,2013-02-21 04:23:00,
2013-02-20 21:28:00,19.0,16.8,30.03,SW,215,2.0,4.0,91,0.00,,---,0.00,VWS V13.00,2013-02-21 04:28:00,
2013-02-20 21:33:00,18.9,16.7,30.03,SW,216,3.0,4.0,91,0.00,,---,0.00,VWS V13.00,2013-02-21 04:33:00,
2013-02-20 21:38:00,18.9,16.7,30.03,SW,215,3.0,4.0,91,0.00,,---,0.00,VWS V13.00,2013-02-21 04:38:00,
2013-02-20 21:43:00,18.9,16.7,30.03,SW,216,3.0,4.0,91,0.00,,---,0.00,VWS V13.00,2013-02-21 04:43:00,
2013-02-20 21:48:00,18.8,16.6,30.03,SW,216,5.0,5.0,91,0.00,,---,0.00,VWS V13.00,2013-02-21 04:48:00,
2013-02-20 21:53:00,18.8,16.6,30.03,SW,216,4.0,5.0,91,0.00,,---,0.00,VWS V13.00,2013-02-21 04:53:00,
2013-02-20 21:58:00,18.9,16.7,30.03,SSW,203,5.0,6.0,91,0.00,,---,0.00,VWS V13.00,2013-02-21 04:58:00,
2013-02-20 22:00:00,18.9,16.7,30.03,SSW,198,6.0,6.0,91,0.00,,---,0.00,VWS V13.00,2013-02-21 05:00:00,
2013-02-20 22:05:00,18.8,16.6,30.03,South,173,5.0,7.0,91,0.00,,---,0.00,VWS V13.00,2013-02-21 05:05:00,
2013-02-20 22:10:00,18.8,16.4,30.03,South,172,5.0,6.0,90,0.00,,---,0.00,VWS V13.00,2013-02-21 05:10:00,
2013-02-20 22:15:00,18.8,16.6,30.03,South,171,5.0,6.0,91,0.00,,---,0.00,VWS V13.00,2013-02-21 05:15:00,
2013-02-20 22:20:00,18.8,16.6,30.03,South,171,5.0,6.0,91,0.00,,---,0.00,VWS V13.00,2013-02-21 05:20:00,
2013-02-20 22:25:00,18.8,16.4,30.03,South,171,3.0,6.0,90,0.00,,---,0.00,VWS V13.00,2013-02-21 05:25:00,
2013-02-20 22:30:00,18.8,16.6,30.03,South,171,1.0,6.0,91,0.00,,---,0.00,VWS V13.00,2013-02-21 05:30:00,
2013-02-20 22:35:00,18.7,16.3,30.03,South,171,1.0,6.0,90,0.00,,---,0.00,VWS V13.00,2013-02-21 05:35:00,
2013-02-20 22:40:00,18.7,16.3,30.03,South,171,2.0,3.0,90,0.00,,---,0.00,VWS V13.00,2013-02-21 05:40:00,
2013-02-20 22:45:00,18.6,16.2,30.03,South,171,1.0,3.0,90,0.00,,---,0.00,VWS V13.00,2013-02-21 05:45:00,
2013-02-20 22:50:00,18.5,16.1,30.03,South,171,3.0,3.0,90,0.00,,---,0.00,VWS V13.00,2013-02-21 05:50:00,
2013-02-20 22:55:00,18.3,15.9,30.03,South,171,4.0,4.0,90,0.00,,---,0.00,VWS V13.00,2013-02-21 05:55:00,
2013-02-20 23:00:00,18.3,15.9,30.03,South,171,4.0,5.0,90,0.00,,---,0.00,VWS V13.00,2013-02-21 06:00:00,
2013-02-20 23:05:00,18.4,16.2,30.03,South,171,3.0,5.0,91,0.00,,---,0.00,VWS V13.00,2013-02-21 06:05:00,
2013-02-20 23:10:00,18.5,16.3,30.03,South,171,3.0,4.0,91,0.00,,---,0.00,VWS V13.00,2013-02-21 06:10:00,
2013-02-20 23:15:00,18.5,16.3,30.03,South,171,4.0,5.0,91,0.00,,---,0.00,VWS V13.00,2013-02-21 06:15:00,
2013-02-20 23:20:00,18.5,16.3,30.03,SSE,161,5.0,7.0,91,0.00,,---,0.00,VWS V13.00,2013-02-21 06:20:00,
2013-02-20 23:25:00,18.5,16.1,30.02,SSE,159,6.0,7.0,90,0.00,,---,0.00,VWS V13.00,2013-02-21 06:25:00,
2013-02-20 23:30:00,18.3,15.9,30.02,SSE,159,5.0,7.0,90,0.00,,---,0.00,VWS V13.00,2013-02-21 06:30:00,
2013-02-20 23:35:00,18.0,15.6,30.02,SSE,159,4.0,7.0,90,0.00,,---,0.00,VWS V13.00,2013-02-21 06:35:00,
2013-02-20 23:40:00,17.8,15.4,30.03,SSE,159,3.0,3.0,90,0.00,,---,0.00,VWS V13.00,2013-02-21 06:40:00,
2013-02-20 23:45:00,17.7,15.3,30.03,SSE,159,4.0,5.0,90,0.00,,---,0.00,VWS V13.00,2013-02-21 06:45:00,
2013-02-20 23:50:00,17.6,15.2,30.03,SSE,159,3.0,5.0,90,0.00,,---,0.00,VWS V13.00,2013-02-21 06:50:00,
2013-02-20 23:55:00,17.5,15.1,30.02,SSE,159,3.0,5.0,90,0.00,,---,0.00,VWS V13.00,2013-02-21 06:55:00,